Ana Sayfa
METAR-TAF:

METAR-TAF

Havaalanları :

LaGrange-Callaway Airport

LaGrange, Georgia, Amerika Birleşik Devletleri

Enlem: 33-00-32N, Boylam: 085-04-21W, yükseklik: 211 m

Güncel hava durumu gözlemi

Rapor saat 18:35 UTC de 20 dakika önce yapıldı.
Rüzgar kuzey/kuzeydoğudan 4 kt
Sıcaklık 34°C
Nem 30%
Basınç 1015 hPa
Görüş mesafesi: 16.1 km
Açık gökyüzü

METAR: KLGC 251835Z AUTO 03004KT 10SM CLR 34/14 A2998 RMK AO2 T03360140

Saat: 14:55 (18:55 UTC)


TAF: eksik

4.000'den fazla havaalanı için hava durumu gözlemleri ve tahminleri (METAR ve TAF raporları).

Kullanılabilir istasyonlar harita üzerinde sarı ve kırmızı noktalarla gösterilir.

İstasyonun adını görmek için fareyi noktanın üzerinde gezdirin.

Sonrasında hava gözlem ve tahminlerini görmek için tıklayın.

Haritayı değiştirmek için: yaklaştırmak için siyah artı işaretli yeşil düğmeye ve uzaklaştırmak için de eksi işaretli düğmeye hızla tıklayın; bitişik haritalar için yeşil okları kullanın.


METAR-TAF: